Time;durP1;ratioP1;P1;durP2;ratioP2;P2;SDS_P1;SDS_P2;PMS_P1;PMS_P2;Temp;Humidity;BMP_temperature;BMP_pressure;BME280_temperature;BME280_humidity;BME280_pressure;Samples;Min_cycle;Max_cycle;Signal;HPM_P1;HPM_P2
2023/01/14 06:15:17;;;;;;;1.30;1.20;;;;;;;;;;6325452;22;20574;-90
2023/01/14 06:17:57;;;;;;;2.07;1.93;;;;;;;;;;6337960;22;20165;-90
2023/01/14 06:20:31;;;;;;;0.60;0.60;;;;;;;;;;6337531;22;20226;-91
2023/01/14 06:23:00;;;;;;;2.90;1.40;;;;;;;;;;6340103;22;20164;-93
2023/01/14 06:25:36;;;;;;;1.07;1.07;;;;;;;;;;6341298;22;20218;-93
2023/01/14 06:28:32;;;;;;;0.40;0.40;;;;;;;;;;6347220;22;20172;-94
2023/01/14 06:31:16;;;;;;;2.00;1.90;;;;;;;;;;6343968;22;20208;-93
2023/01/14 06:34:02;;;;;;;2.30;2.17;;;;;;;;;;6345454;22;20164;-93
2023/01/14 06:36:38;;;;;;;0.83;0.83;;;;;;;;;;6347785;22;20236;-94
2023/01/14 06:39:17;;;;;;;0.40;0.40;;;;;;;;;;6346322;22;20197;-93
2023/01/14 06:41:52;;;;;;;0.83;0.83;;;;;;;;;;6351334;22;20204;-93
2023/01/14 06:44:31;;;;;;;1.30;1.30;;;;;;;;;;6355259;22;20195;-93
2023/01/14 06:47:29;;;;;;;0.37;0.37;;;;;;;;;;6345330;22;20206;-92
2023/01/14 06:50:09;;;;;;;0.30;0.30;;;;;;;;;;6334404;22;20317;-92
2023/01/14 06:52:54;;;;;;;1.00;1.00;;;;;;;;;;6357972;22;20180;-90
2023/01/14 06:55:33;;;;;;;4.23;1.27;;;;;;;;;;6361838;22;20206;-94
2023/01/14 07:01:11;;;;;;;0.37;0.37;;;;;;;;;;6333279;22;21066;-95
2023/01/14 07:03:48;;;;;;;0.83;0.83;;;;;;;;;;6344095;22;20193;-94
2023/01/14 07:09:07;;;;;;;6.43;2.63;;;;;;;;;;6338679;22;20676;-93
2023/01/14 07:11:51;;;;;;;0.73;0.73;;;;;;;;;;6343398;22;20203;-93
2023/01/14 07:14:50;;;;;;;;;;;;;;;;;;;;;
2023/01/14 07:17:36;;;;;;;4.83;1.20;;;;;;;;;;6339052;22;20192;-93
2023/01/14 07:23:09;;;;;;;1.07;1.07;;;;;;;;;;6324327;22;20193;-94
2023/01/14 07:28:51;;;;;;;0.73;0.73;;;;;;;;;;6291257;22;20227;-90
2023/01/14 07:31:30;;;;;;;1.33;0.77;;;;;;;;;;6340206;22;20281;-93
2023/01/14 07:34:07;;;;;;;1.33;1.00;;;;;;;;;;6307723;22;20282;-91
2023/01/14 07:36:43;;;;;;;1.43;0.93;;;;;;;;;;6341259;22;20188;-91
2023/01/14 07:39:14;;;;;;;0.70;0.70;;;;;;;;;;6340219;22;20211;-92
2023/01/14 07:41:55;;;;;;;0.50;0.50;;;;;;;;;;6341966;22;20242;-92
2023/01/14 07:44:43;;;;;;;1.57;1.47;;;;;;;;;;6340827;22;20215;-94
2023/01/14 07:47:26;;;;;;;0.17;0.17;;;;;;;;;;6341541;22;20193;-93
2023/01/14 07:50:15;;;;;;;1.00;1.00;;;;;;;;;;6340414;22;20200;-93
2023/01/14 07:52:52;;;;;;;0.70;0.70;;;;;;;;;;6339848;22;20199;-93
2023/01/14 08:04:24;;;;;;;3.03;0.83;;;;;;;;;;6343688;22;20200;-93
2023/01/14 08:13:38;;;;;;;0.70;0.53;;;;;;;;;;6185207;23;20192;-93
2023/01/14 08:16:18;;;;;;;6.03;1.70;;;;;;;;;;6339713;22;20195;-92
2023/01/14 08:19:09;;;;;;;0.83;0.73;;;;;;;;;;6341216;22;20271;-93
2023/01/14 08:21:48;;;;;;;0.63;0.63;;;;;;;;;;6341064;22;20342;-93
2023/01/14 08:24:28;;;;;;;1.50;1.50;;;;;;;;;;6340294;22;20249;-93
2023/01/14 08:29:53;;;;;;;1.10;1.03;;;;;;;;;;6332798;22;20204;-92
2023/01/14 08:32:39;;;;;;;1.33;1.30;;;;;;;;;;6341254;22;20185;-93
2023/01/14 08:35:19;;;;;;;1.77;1.67;;;;;;;;;;6342133;22;20188;-91
2023/01/14 08:38:03;;;;;;;1.50;1.40;;;;;;;;;;6345225;22;20272;-93
2023/01/14 08:47:03;;;;;;;1.63;0.73;;;;;;;;;;6338642;22;20240;-90
2023/01/14 08:49:53;;;;;;;1.23;1.23;;;;;;;;;;6338507;22;20199;-94
2023/01/14 08:52:52;;;;;;;6.13;1.87;;;;;;;;;;6339925;22;20212;-94
2023/01/14 08:55:46;;;;;;;;;;;;;;;;;;;;;
2023/01/14 08:58:47;;;;;;;;;;;;;;;;;;;;;
2023/01/14 09:04:19;;;;;;;1.53;1.47;;;;;;;;;;6343692;22;20216;-92
2023/01/14 09:18:49;;;;;;;1.20;0.97;;;;;;;;;;6343262;22;20582;-90
2023/01/14 09:21:34;;;;;;;1.03;1.00;;;;;;;;;;6344700;22;20192;-93
2023/01/14 09:24:11;;;;;;;0.30;0.30;;;;;;;;;;6342023;22;20243;-91
2023/01/14 09:26:47;;;;;;;1.27;1.13;;;;;;;;;;6339009;22;20358;-92
2023/01/14 09:29:23;;;;;;;0.30;0.30;;;;;;;;;;6343633;22;20217;-90
2023/01/14 09:34:53;;;;;;;0.70;0.70;;;;;;;;;;6338536;22;20289;-91
2023/01/14 09:37:52;;;;;;;5.43;1.43;;;;;;;;;;6349461;22;20192;-91
2023/01/14 09:40:27;;;;;;;0.50;0.50;;;;;;;;;;6351166;22;20192;-90
2023/01/14 09:43:23;;;;;;;7.13;0.83;;;;;;;;;;6347731;22;20210;-91
2023/01/14 09:45:59;;;;;;;1.17;0.40;;;;;;;;;;6348754;22;20653;-91
2023/01/14 09:48:47;;;;;;;0.20;0.20;;;;;;;;;;6349023;22;20237;-90
2023/01/14 09:51:41;;;;;;;0.70;0.60;;;;;;;;;;6350273;22;20205;-90
2023/01/14 09:54:22;;;;;;;0.87;0.87;;;;;;;;;;6350075;22;20193;-88
2023/01/14 09:59:44;;;;;;;1.23;0.57;;;;;;;;;;6349460;22;20195;-88
2023/01/14 10:02:32;;;;;;;1.23;0.47;;;;;;;;;;6349529;22;20220;-91
2023/01/14 10:05:28;;;;;;;1.23;0.50;;;;;;;;;;6350176;22;20189;-91
2023/01/14 10:08:04;;;;;;;0.43;0.43;;;;;;;;;;6323110;22;20199;-90
2023/01/14 10:10:39;;;;;;;0.50;0.50;;;;;;;;;;6351065;22;20376;-91
2023/01/14 10:13:16;;;;;;;1.07;1.07;;;;;;;;;;6353806;22;20193;-91
2023/01/14 10:15:57;;;;;;;1.07;0.63;;;;;;;;;;6360872;22;20220;-91
2023/01/14 10:18:42;;;;;;;0.60;0.60;;;;;;;;;;6364632;22;20235;-92
2023/01/14 10:21:17;;;;;;;1.40;1.23;;;;;;;;;;6364427;22;20191;-90
2023/01/14 10:23:57;;;;;;;0.50;0.50;;;;;;;;;;6362437;22;20189;-92
2023/01/14 10:26:34;;;;;;;1.03;1.03;;;;;;;;;;6351781;22;20219;-91
2023/01/14 10:29:03;;;;;;;2.20;0.90;;;;;;;;;;6349632;22;20224;-92
2023/01/14 10:31:37;;;;;;;0.90;0.90;;;;;;;;;;6350013;22;20451;-91
2023/01/14 10:36:58;;;;;;;0.70;0.70;;;;;;;;;;6343126;22;20212;-91
2023/01/14 10:43:22;;;;;;;0.77;0.67;;;;;;;;;;6335514;22;20198;-90
2023/01/14 10:46:01;;;;;;;9.00;1.10;;;;;;;;;;6349484;22;20189;-91
2023/01/14 10:51:39;;;;;;;4.33;1.47;;;;;;;;;;6353771;22;20211;-91
2023/01/14 10:54:24;;;;;;;1.57;1.47;;;;;;;;;;6319001;22;20199;-92
2023/01/14 11:03:04;;;;;;;3.07;1.63;;;;;;;;;;6317531;22;20203;-91
2023/01/14 11:05:46;;;;;;;2.07;1.77;;;;;;;;;;6320205;22;20194;-93
2023/01/14 11:08:31;;;;;;;1.37;1.27;;;;;;;;;;6321140;22;20191;-91
2023/01/14 11:11:07;;;;;;;1.93;1.27;;;;;;;;;;6283570;22;20679;-91
2023/01/14 11:13:56;;;;;;;2.30;2.10;;;;;;;;;;6279437;22;20197;-93
2023/01/14 11:16:36;;;;;;;1.73;1.63;;;;;;;;;;6273735;22;20223;-92
2023/01/14 11:19:20;;;;;;;2.07;1.87;;;;;;;;;;6277825;22;20175;-92
2023/01/14 11:21:58;;;;;;;5.27;1.87;;;;;;;;;;6279902;22;20166;-92
2023/01/14 11:24:35;;;;;;;2.43;1.87;;;;;;;;;;6278918;22;20232;-91
2023/01/14 11:27:33;;;;;;;2.07;1.90;;;;;;;;;;6295442;22;20200;-92
2023/01/14 11:30:06;;;;;;;1.80;1.10;;;;;;;;;;6302384;22;20193;-92
2023/01/14 11:32:48;;;;;;;4.90;1.27;;;;;;;;;;6293787;22;20199;-93
2023/01/14 11:35:21;;;;;;;1.90;1.00;;;;;;;;;;6277417;22;20162;-89
2023/01/14 11:38:01;;;;;;;5.27;2.80;;;;;;;;;;6280455;22;20166;-92
2023/01/14 11:43:16;;;;;;;2.17;1.50;;;;;;;;;;6285288;22;20162;-91
2023/01/14 11:46:12;;;;;;;4.57;1.13;;;;;;;;;;6278822;22;20181;-93
2023/01/14 11:48:46;;;;;;;0.73;0.73;;;;;;;;;;6276321;22;20232;-92
2023/01/14 11:51:29;;;;;;;0.90;0.90;;;;;;;;;;6275833;22;20238;-91
2023/01/14 11:54:22;;;;;;;1.00;0.70;;;;;;;;;;6275749;22;20170;-93
2023/01/14 11:56:50;;;;;;;3.63;2.37;;;;;;;;;;6275898;22;20173;-93
2023/01/14 11:59:27;;;;;;;0.93;0.93;;;;;;;;;;6276183;22;20556;-93
2023/01/14 12:02:15;;;;;;;0.53;0.53;;;;;;;;;;6276197;22;20170;-92
2023/01/14 12:07:40;;;;;;;0.73;0.30;;;;;;;;;;6274451;22;20513;-93
2023/01/14 12:10:21;;;;;;;1.73;0.53;;;;;;;;;;6274546;22;20628;-93
2023/01/14 12:18:39;;;;;;;0.53;0.53;;;;;;;;;;6274801;22;20169;-94
2023/01/14 12:21:10;;;;;;;0.93;0.93;;;;;;;;;;6275130;22;20193;-92
2023/01/14 12:29:37;;;;;;;0.87;0.40;;;;;;;;;;6274674;22;20257;-92
2023/01/14 12:35:11;;;;;;;0.40;0.40;;;;;;;;;;6270538;22;20170;-93
2023/01/14 12:37:55;;;;;;;1.23;1.03;;;;;;;;;;6274925;22;20200;-91
2023/01/14 12:46:22;;;;;;;0.37;0.37;;;;;;;;;;6276330;22;20169;-92
2023/01/14 12:51:39;;;;;;;0.23;0.23;;;;;;;;;;6274548;22;20205;-92
2023/01/14 12:54:34;;;;;;;0.50;0.50;;;;;;;;;;6278535;22;20169;-92
2023/01/14 13:00:29;;;;;;;0.73;0.67;;;;;;;;;;6234494;22;20177;-93
2023/01/14 13:03:25;;;;;;;0.93;0.93;;;;;;;;;;6274845;22;20225;-91
2023/01/14 13:06:02;;;;;;;0.20;0.20;;;;;;;;;;6276943;22;20181;-91
2023/01/14 13:08:46;;;;;;;1.03;0.93;;;;;;;;;;6276318;22;20166;-93
2023/01/14 13:14:06;;;;;;;0.77;0.77;;;;;;;;;;6277540;22;20176;-94
2023/01/14 13:16:45;;;;;;;1.00;1.00;;;;;;;;;;6276300;22;20198;-92
2023/01/14 13:22:24;;;;;;;0.73;0.73;;;;;;;;;;6273075;22;20173;-92
2023/01/14 13:25:02;;;;;;;1.70;1.07;;;;;;;;;;6275232;22;20631;-91
2023/01/14 13:27:41;;;;;;;2.87;2.40;;;;;;;;;;6277237;22;20595;-94
2023/01/14 13:30:36;;;;;;;0.97;0.97;;;;;;;;;;6276089;22;20181;-91
2023/01/14 13:33:20;;;;;;;0.37;0.37;;;;;;;;;;6275525;22;20308;-92
2023/01/14 13:36:06;;;;;;;0.37;0.37;;;;;;;;;;6275093;22;20321;-92
2023/01/14 13:38:56;;;;;;;1.27;0.60;;;;;;;;;;6264373;22;20177;-93
2023/01/14 13:41:43;;;;;;;1.23;1.23;;;;;;;;;;6251594;22;20180;-92
2023/01/14 13:44:35;;;;;;;1.13;1.13;;;;;;;;;;6285522;22;20172;-93
2023/01/14 13:47:12;;;;;;;1.20;1.20;;;;;;;;;;6282029;22;20162;-92
2023/01/14 13:49:45;;;;;;;0.53;0.53;;;;;;;;;;6276538;22;20205;-93
2023/01/14 13:52:33;;;;;;;;;;;;;;;;;;;;;
2023/01/14 13:55:26;;;;;;;1.90;0.63;;;;;;;;;;6277200;22;20166;-93
2023/01/14 13:58:06;;;;;;;0.60;0.60;;;;;;;;;;6293748;22;20170;-92
2023/01/14 14:00:52;;;;;;;0.93;0.93;;;;;;;;;;6295967;22;20221;-90
2023/01/14 14:03:38;;;;;;;1.03;0.70;;;;;;;;;;6296475;22;20169;-91
2023/01/14 14:06:23;;;;;;;0.60;0.60;;;;;;;;;;6282792;22;20521;-93
2023/01/14 14:08:52;;;;;;;1.37;1.27;;;;;;;;;;6277896;22;20185;-93
2023/01/14 14:11:38;;;;;;;0.60;0.60;;;;;;;;;;6275868;22;20224;-93
2023/01/14 14:14:25;;;;;;;0.47;0.47;;;;;;;;;;6275928;22;20162;-93
2023/01/14 14:17:17;;;;;;;1.80;1.70;;;;;;;;;;6275547;22;20200;-94
2023/01/14 14:20:10;;;;;;;;;;;;;;;;;;;;;
2023/01/14 14:25:34;;;;;;;1.50;1.00;;;;;;;;;;6272913;22;20243;-93
2023/01/14 14:28:30;;;;;;;4.73;1.27;;;;;;;;;;6280028;22;20193;-93
2023/01/14 14:31:30;;;;;;;1.43;1.20;;;;;;;;;;6277373;22;20178;-93
2023/01/14 14:34:24;;;;;;;0.47;0.33;;;;;;;;;;6291886;22;20173;-93
2023/01/14 14:37:11;;;;;;;1.23;0.53;;;;;;;;;;6300911;22;20221;-92
2023/01/14 14:42:55;;;;;;;0.70;0.40;;;;;;;;;;6289618;22;20158;-93
2023/01/14 14:45:35;;;;;;;1.67;1.60;;;;;;;;;;6219717;22;20242;-95
2023/01/14 14:48:25;;;;;;;2.33;0.80;;;;;;;;;;6279283;22;20623;-93
2023/01/14 14:51:07;;;;;;;0.40;0.40;;;;;;;;;;6277963;22;20206;-93
2023/01/14 14:54:02;;;;;;;0.30;0.30;;;;;;;;;;6278499;22;20216;-92
2023/01/14 14:56:58;;;;;;;1.30;0.77;;;;;;;;;;6266331;22;20170;-92
2023/01/14 14:59:41;;;;;;;5.37;0.50;;;;;;;;;;6278287;22;20170;-93
2023/01/14 15:02:50;;;;;;;;;;;;;;;;;;;;;
2023/01/14 15:05:20;;;;;;;0.93;0.73;;;;;;;;;;6279533;22;20192;-93
2023/01/14 15:08:01;;;;;;;2.03;0.90;;;;;;;;;;6277243;22;20174;-92
2023/01/14 15:10:34;;;;;;;1.13;1.03;;;;;;;;;;6250439;22;20252;-91
2023/01/14 15:13:26;;;;;;;1.20;0.77;;;;;;;;;;6277231;22;20198;-94
2023/01/14 15:16:41;;;;;;;0.60;0.60;;;;;;;;;;6277070;22;20190;-95
2023/01/14 15:19:36;;;;;;;0.40;0.40;;;;;;;;;;6209014;22;20185;-93
2023/01/14 15:22:05;;;;;;;1.00;1.00;;;;;;;;;;6275383;22;20188;-93
2023/01/14 15:24:37;;;;;;;2.53;1.03;;;;;;;;;;6276061;22;20166;-92
2023/01/14 15:27:29;;;;;;;1.10;0.47;;;;;;;;;;6282110;22;20583;-93
2023/01/14 15:39:29;;;;;;;0.50;0.50;;;;;;;;;;6277646;22;20614;-91
2023/01/14 15:42:10;;;;;;;1.33;0.93;;;;;;;;;;6282882;22;20232;-92
2023/01/14 15:44:50;;;;;;;0.37;0.37;;;;;;;;;;6283492;22;20513;-93
2023/01/14 15:47:38;;;;;;;;;;;;;;;;;;;;;
2023/01/14 15:50:08;;;;;;;0.60;0.60;;;;;;;;;;6278628;22;20538;-93
2023/01/14 15:52:57;;;;;;;0.70;0.70;;;;;;;;;;6279067;22;20224;-93
2023/01/14 15:55:28;;;;;;;0.33;0.33;;;;;;;;;;6281615;22;20180;-92
2023/01/14 15:58:31;;;;;;;0.57;0.57;;;;;;;;;;6279150;22;20162;-93
2023/01/14 16:01:05;;;;;;;1.07;1.07;;;;;;;;;;6275701;22;20170;-92
2023/01/14 16:03:48;;;;;;;1.33;0.53;;;;;;;;;;6275456;22;20177;-92
2023/01/14 16:09:32;;;;;;;1.00;1.00;;;;;;;;;;6275036;22;20201;-92
2023/01/14 16:12:17;;;;;;;;;;;;;;;;;;;;;
2023/01/14 16:21:00;;;;;;;1.60;1.23;;;;;;;;;;6278287;22;20162;-93
2023/01/14 16:29:23;;;;;;;0.27;0.27;;;;;;;;;;6274515;22;20209;-92
2023/01/14 16:35:05;;;;;;;1.13;0.50;;;;;;;;;;6297842;22;20204;-91
2023/01/14 16:37:58;;;;;;;0.53;0.53;;;;;;;;;;6301706;22;20162;-91
2023/01/14 16:40:48;;;;;;;1.57;0.37;;;;;;;;;;6301492;22;20189;-91
2023/01/14 16:43:28;;;;;;;2.63;1.27;;;;;;;;;;6278015;22;20577;-92
2023/01/14 16:46:07;;;;;;;0.33;0.33;;;;;;;;;;6276071;22;20184;-92
2023/01/14 16:48:52;;;;;;;0.30;0.23;;;;;;;;;;6276062;22;20236;-93
2023/01/14 16:51:55;;;;;;;0.30;0.30;;;;;;;;;;6274804;22;20220;-91
2023/01/14 16:58:00;;;;;;;;;;;;;;;;;;;;;
2023/01/14 17:01:09;;;;;;;;;;;;;;;;;;;;;
2023/01/14 17:04:11;;;;;;;1.50;0.47;;;;;;;;;;6273686;22;20196;-92
2023/01/14 17:07:04;;;;;;;0.50;0.50;;;;;;;;;;6261683;22;20613;-91
2023/01/14 17:10:03;;;;;;;0.20;0.20;;;;;;;;;;6279753;22;20194;-93
2023/01/14 17:12:50;;;;;;;0.37;0.37;;;;;;;;;;6274314;22;20186;-92
2023/01/14 17:15:38;;;;;;;0.73;0.73;;;;;;;;;;6274608;22;20186;-92
2023/01/14 17:21:14;;;;;;;0.37;0.37;;;;;;;;;;6258351;22;20634;-93
2023/01/14 17:29:55;;;;;;;0.23;0.23;;;;;;;;;;6272993;22;20193;-91
